createdAt,value
2023-03-23T00:00:52.474Z,12
2023-03-23T00:01:54.197Z,11.99
2023-03-23T00:02:55.960Z,12
2023-03-23T00:03:57.663Z,11.99
2023-03-23T00:04:59.439Z,11.99
2023-03-23T00:06:01.151Z,11.99
2023-03-23T00:07:02.867Z,11.99
2023-03-23T00:08:04.599Z,11.98
2023-03-23T00:09:06.349Z,11.97
2023-03-23T00:10:08.088Z,11.97
2023-03-23T00:11:09.805Z,11.95
2023-03-23T00:12:11.533Z,11.95
2023-03-23T00:13:13.375Z,11.93
2023-03-23T00:14:15.022Z,11.93
2023-03-23T00:15:16.775Z,11.92
2023-03-23T00:16:18.483Z,11.91
2023-03-23T00:17:20.218Z,11.91
2023-03-23T00:18:21.933Z,11.89
2023-03-23T00:19:25.099Z,11.88
2023-03-23T00:20:25.406Z,11.87
2023-03-23T00:21:27.146Z,11.86
2023-03-23T00:22:28.892Z,11.84
2023-03-23T00:23:30.614Z,11.82
2023-03-23T00:24:32.359Z,11.81
2023-03-23T00:25:34.101Z,11.79
2023-03-23T00:26:48.190Z,11.76
2023-03-23T00:27:37.571Z,11.74
2023-03-23T00:28:39.284Z,11.72
2023-03-23T00:29:41.053Z,11.7
2023-03-23T00:30:42.766Z,11.68
2023-03-23T00:31:44.502Z,11.67
2023-03-23T00:32:46.244Z,11.66
2023-03-23T00:33:47.971Z,11.64
2023-03-23T00:34:49.766Z,11.63
2023-03-23T00:35:51.459Z,11.62
2023-03-23T00:36:53.175Z,11.61
2023-03-23T00:37:54.905Z,11.6
2023-03-23T00:38:56.636Z,11.59
2023-03-23T00:39:58.393Z,11.59
2023-03-23T00:41:00.156Z,11.58
2023-03-23T00:42:01.852Z,11.58
2023-03-23T00:43:03.582Z,11.58
2023-03-23T00:44:05.298Z,11.58
2023-03-23T00:45:07.047Z,11.58
2023-03-23T00:46:08.773Z,11.58
2023-03-23T00:47:10.534Z,11.57
2023-03-23T00:48:12.258Z,11.57
2023-03-23T00:49:13.998Z,11.55
2023-03-23T00:50:16.306Z,11.55
2023-03-23T00:51:17.444Z,11.54
2023-03-23T00:52:19.281Z,11.54
2023-03-23T00:53:20.926Z,11.53
2023-03-23T00:54:22.649Z,11.52
2023-03-23T00:55:24.386Z,11.53
2023-03-23T00:56:26.144Z,11.51
2023-03-23T00:57:27.862Z,11.5
2023-03-23T00:58:29.594Z,11.49
2023-03-23T00:59:31.346Z,11.48
2023-03-23T01:00:33.056Z,11.47
2023-03-23T01:01:34.800Z,11.45
2023-03-23T01:02:36.525Z,11.42
2023-03-23T01:03:38.264Z,11.41
2023-03-23T01:04:40.012Z,11.41
2023-03-23T01:05:41.938Z,11.38
2023-03-23T01:06:43.477Z,11.38
2023-03-23T01:07:45.195Z,11.37
2023-03-23T01:08:46.937Z,11.37
2023-03-23T01:09:48.706Z,11.37
2023-03-23T01:10:50.397Z,11.38
2023-03-23T01:11:52.124Z,11.38
2023-03-23T01:12:53.896Z,11.4
2023-03-23T01:13:55.598Z,11.42
2023-03-23T01:14:57.405Z,11.44
2023-03-23T01:15:59.070Z,11.47
2023-03-23T01:17:00.803Z,11.49
2023-03-23T01:18:02.548Z,11.52
2023-03-23T01:19:04.267Z,11.57
2023-03-23T01:20:06.007Z,11.62
2023-03-23T01:21:07.744Z,11.66
2023-03-23T01:22:09.480Z,11.73
2023-03-23T01:23:11.206Z,11.77
2023-03-23T01:24:12.932Z,11.81
2023-03-23T01:25:14.665Z,11.85
2023-03-23T01:26:16.406Z,11.89
2023-03-23T01:27:18.152Z,11.92
2023-03-23T01:28:19.865Z,11.97
2023-03-23T01:29:21.608Z,12.01
2023-03-23T01:30:23.342Z,12.05
2023-03-23T01:31:25.082Z,12.07
2023-03-23T01:32:26.832Z,12.08
2023-03-23T01:33:28.552Z,12.1
2023-03-23T01:34:30.279Z,12.12
2023-03-23T01:35:32.028Z,12.14
2023-03-23T01:36:33.770Z,12.14
2023-03-23T01:37:35.485Z,12.14
2023-03-23T01:38:37.216Z,12.15
2023-03-23T01:39:38.946Z,12.16
2023-03-23T01:40:40.682Z,12.16
2023-03-23T01:41:42.421Z,12.16
2023-03-23T01:42:44.152Z,12.15
2023-03-23T01:43:45.899Z,12.15
2023-03-23T01:44:47.656Z,12.14
2023-03-23T01:45:49.362Z,12.13
2023-03-23T01:46:51.103Z,12.12
2023-03-23T01:47:52.825Z,12.1
2023-03-23T01:48:54.570Z,12.08
2023-03-23T01:49:56.293Z,12.06
2023-03-23T01:50:58.045Z,12.04
2023-03-23T01:51:59.770Z,12.04
2023-03-23T01:53:01.490Z,12.03
2023-03-23T01:54:03.216Z,12.03
2023-03-23T01:55:04.977Z,12.03
2023-03-23T01:56:06.714Z,12.03
2023-03-23T01:57:08.435Z,12.02
2023-03-23T01:58:10.171Z,12.03
2023-03-23T01:59:11.904Z,12.02
2023-03-23T02:00:13.640Z,12.02
2023-03-23T02:01:15.357Z,12.01
2023-03-23T02:02:17.108Z,12
2023-03-23T02:03:18.841Z,12.01
2023-03-23T02:04:20.564Z,12
2023-03-23T02:05:22.298Z,12
2023-03-23T02:06:24.036Z,11.99
2023-03-23T02:07:25.780Z,11.97
2023-03-23T02:08:27.590Z,11.96
2023-03-23T02:09:29.238Z,11.96
2023-03-23T02:10:31.034Z,11.97
2023-03-23T02:11:32.698Z,11.97
2023-03-23T02:12:34.439Z,11.97
2023-03-23T02:13:36.256Z,11.98
2023-03-23T02:14:37.905Z,11.98
2023-03-23T02:15:39.859Z,11.97
2023-03-23T02:16:41.364Z,11.98
2023-03-23T02:17:43.100Z,11.98
2023-03-23T02:18:44.846Z,11.98
2023-03-23T02:19:46.591Z,12
2023-03-23T02:20:48.305Z,11.99
2023-03-23T02:21:50.053Z,11.99
2023-03-23T02:22:51.775Z,11.98
2023-03-23T02:23:53.516Z,11.95
2023-03-23T02:24:55.258Z,11.91
2023-03-23T02:25:56.982Z,11.85
2023-03-23T02:26:58.721Z,11.77
2023-03-23T02:28:00.466Z,11.7
2023-03-23T02:29:02.189Z,11.62
2023-03-23T02:30:03.920Z,11.54
2023-03-23T02:31:05.636Z,11.45
2023-03-23T02:32:07.393Z,11.36
2023-03-23T02:33:09.128Z,11.29
2023-03-23T02:34:10.856Z,11.21
2023-03-23T02:35:12.589Z,11.13
2023-03-23T02:36:14.311Z,11.05
2023-03-23T02:37:16.069Z,11
2023-03-23T02:38:17.776Z,10.93
2023-03-23T02:39:19.529Z,10.88
2023-03-23T02:40:21.260Z,10.81
2023-03-23T02:41:22.996Z,10.76
2023-03-23T02:42:24.775Z,10.71
2023-03-23T02:43:26.452Z,10.68
2023-03-23T02:44:28.190Z,10.64
2023-03-23T02:45:29.923Z,10.61
2023-03-23T02:46:31.663Z,10.6
2023-03-23T02:47:33.391Z,10.57
2023-03-23T02:48:35.148Z,10.55
2023-03-23T02:49:36.900Z,10.56
2023-03-23T02:50:38.608Z,10.54
2023-03-23T02:51:43.318Z,10.53
2023-03-23T02:52:42.056Z,10.54
2023-03-23T02:53:43.785Z,10.53
2023-03-23T02:54:45.539Z,10.53
2023-03-23T02:55:47.254Z,10.56
2023-03-23T02:56:48.982Z,10.55
2023-03-23T02:57:50.725Z,10.56
2023-03-23T02:58:52.481Z,10.57
2023-03-23T02:59:54.220Z,10.58
2023-03-23T03:00:55.946Z,10.59
2023-03-23T03:01:57.656Z,10.6
2023-03-23T03:02:59.408Z,10.62
2023-03-23T03:04:01.126Z,10.63
2023-03-23T03:05:02.879Z,10.64
2023-03-23T03:06:04.612Z,10.65
2023-03-23T03:07:06.334Z,10.66
2023-03-23T03:08:08.085Z,10.67
2023-03-23T03:09:10.001Z,10.7
2023-03-23T03:10:11.540Z,10.72
2023-03-23T03:11:13.387Z,10.73
2023-03-23T03:12:15.004Z,10.74
2023-03-23T03:13:16.723Z,10.75
2023-03-23T03:14:18.427Z,10.77
2023-03-23T03:15:20.166Z,10.78
2023-03-23T03:16:21.892Z,10.79
2023-03-23T03:17:23.652Z,10.8
2023-03-23T03:18:25.360Z,10.8
2023-03-23T03:19:27.151Z,10.81
2023-03-23T03:20:28.843Z,10.79
2023-03-23T03:21:30.568Z,10.78
2023-03-23T03:22:32.302Z,10.76
2023-03-23T03:23:34.215Z,10.74
2023-03-23T03:24:35.771Z,10.71
2023-03-23T03:25:37.497Z,10.68
2023-03-23T03:26:39.236Z,10.65
2023-03-23T03:27:40.968Z,10.61
2023-03-23T03:28:42.699Z,10.57
2023-03-23T03:29:44.430Z,10.52
2023-03-23T03:30:46.189Z,10.47
2023-03-23T03:31:47.916Z,10.42
2023-03-23T03:32:49.649Z,10.38
2023-03-23T03:33:51.382Z,10.34
2023-03-23T03:34:53.242Z,10.3
2023-03-23T03:35:54.898Z,10.25
2023-03-23T03:36:56.605Z,10.21
2023-03-23T03:37:58.512Z,10.17
2023-03-23T03:39:00.062Z,10.13
2023-03-23T03:40:01.864Z,10.09
2023-03-23T03:41:03.520Z,10.07
2023-03-23T03:42:05.261Z,10.03
2023-03-23T03:43:06.988Z,10
2023-03-23T03:44:08.731Z,9.98
2023-03-23T03:45:10.463Z,9.96
2023-03-23T03:46:12.201Z,9.95
2023-03-23T03:47:13.954Z,9.92
2023-03-23T03:48:15.689Z,9.91
2023-03-23T03:49:17.402Z,9.91
2023-03-23T03:50:19.140Z,9.89
2023-03-23T03:51:20.863Z,9.88
2023-03-23T03:52:22.594Z,9.87
2023-03-23T03:53:28.731Z,9.87
2023-03-23T03:54:26.063Z,9.92
2023-03-23T03:55:27.808Z,9.92
2023-03-23T03:56:29.518Z,9.94
2023-03-23T03:57:31.238Z,9.97
2023-03-23T03:58:32.976Z,9.97
2023-03-23T03:59:34.728Z,10.05
2023-03-23T04:00:36.458Z,10.11
2023-03-23T04:01:38.256Z,10.11
2023-03-23T04:02:39.926Z,10.12
2023-03-23T04:03:41.663Z,10.16
2023-03-23T04:04:43.397Z,10.22
2023-03-23T04:05:45.141Z,10.25
2023-03-23T04:06:46.862Z,10.25
2023-03-23T04:07:48.631Z,10.25
2023-03-23T04:08:50.346Z,10.25
2023-03-23T04:09:52.096Z,10.26
2023-03-23T04:10:53.799Z,10.28
2023-03-23T04:11:55.539Z,10.28
2023-03-23T04:12:57.271Z,10.31
2023-03-23T04:13:59.010Z,10.32
2023-03-23T04:15:06.367Z,10.34
2023-03-23T04:16:10.074Z,10.35
2023-03-23T04:17:04.207Z,10.37
2023-03-23T04:18:05.937Z,10.39
2023-03-23T04:19:07.671Z,10.42
2023-03-23T04:20:09.420Z,10.44
2023-03-23T04:21:11.136Z,10.43
2023-03-23T04:22:12.885Z,10.45
2023-03-23T04:23:14.596Z,10.48
2023-03-23T04:24:22.992Z,10.51
2023-03-23T04:25:18.078Z,10.52
2023-03-23T04:26:19.807Z,10.53
2023-03-23T04:27:21.538Z,10.54
2023-03-23T04:28:23.292Z,10.56
2023-03-23T04:29:25.041Z,10.57
2023-03-23T04:30:26.746Z,10.58
2023-03-23T04:31:28.509Z,10.59
2023-03-23T04:32:30.210Z,10.6
2023-03-23T04:34:00.645Z,10.61
2023-03-23T04:34:33.680Z,10.62
2023-03-23T04:35:35.455Z,10.62
2023-03-23T04:36:57.134Z,10.64
2023-03-23T04:37:38.886Z,10.66
2023-03-23T04:38:40.632Z,10.69
2023-03-23T04:39:42.364Z,10.72
2023-03-23T04:40:44.085Z,10.75
2023-03-23T04:41:45.825Z,10.78
2023-03-23T04:42:47.563Z,10.82
2023-03-23T04:43:49.319Z,10.85
2023-03-23T04:44:51.029Z,10.9
2023-03-23T04:45:52.756Z,10.94
2023-03-23T04:46:54.510Z,10.96
2023-03-23T04:47:56.248Z,11
2023-03-23T04:48:57.960Z,11.03
2023-03-23T04:49:59.707Z,11.09
2023-03-23T04:51:01.476Z,11.12
2023-03-23T04:52:03.184Z,11.12
2023-03-23T04:53:04.896Z,11.16
2023-03-23T04:54:06.639Z,11.17
2023-03-23T04:55:08.385Z,11.19
2023-03-23T04:56:10.116Z,11.22
2023-03-23T04:57:11.851Z,11.25
2023-03-23T04:58:13.575Z,11.28
2023-03-23T04:59:15.301Z,11.3
2023-03-23T05:00:17.053Z,11.31
2023-03-23T05:01:18.758Z,11.33
2023-03-23T05:02:20.519Z,11.33
2023-03-23T05:03:22.241Z,11.33
2023-03-23T05:04:23.978Z,11.34
2023-03-23T05:05:25.713Z,11.33
2023-03-23T05:06:27.452Z,11.32
2023-03-23T05:07:29.179Z,11.32
2023-03-23T05:08:30.926Z,11.31
2023-03-23T05:09:32.722Z,11.31
2023-03-23T05:10:34.386Z,11.3
2023-03-23T05:11:36.137Z,11.3
2023-03-23T05:12:37.837Z,11.3
2023-03-23T05:13:39.575Z,11.28
2023-03-23T05:14:41.304Z,11.27
2023-03-23T05:15:43.327Z,11.27
2023-03-23T05:16:44.746Z,11.25
2023-03-23T05:17:46.477Z,11.25
2023-03-23T05:18:48.209Z,11.22
2023-03-23T05:19:49.933Z,11.21
2023-03-23T05:20:51.787Z,11.2
2023-03-23T05:21:53.409Z,11.18
2023-03-23T05:22:55.192Z,11.17
2023-03-23T05:23:56.879Z,11.16
2023-03-23T05:24:58.609Z,11.16
2023-03-23T05:26:00.344Z,11.15
2023-03-23T05:27:02.083Z,11.13
2023-03-23T05:28:03.812Z,11.12
2023-03-23T05:29:05.554Z,11.12
2023-03-23T05:30:07.274Z,11.12
2023-03-23T05:31:09.025Z,11.11
2023-03-23T05:32:10.746Z,11.1
2023-03-23T05:33:12.535Z,11.09
2023-03-23T05:34:14.229Z,11.08
2023-03-23T05:35:15.971Z,11.07
2023-03-23T05:36:17.701Z,11.06
2023-03-23T05:37:19.417Z,11.06
2023-03-23T05:38:21.160Z,11.05
2023-03-23T05:39:22.888Z,11.03
2023-03-23T05:40:24.627Z,11.02
2023-03-23T05:41:26.361Z,11.02
2023-03-23T05:42:28.101Z,11.01
2023-03-23T05:43:29.824Z,11.01
2023-03-23T05:44:31.552Z,11
2023-03-23T05:45:33.286Z,11
2023-03-23T05:46:35.013Z,10.99
2023-03-23T05:47:36.770Z,10.98
2023-03-23T05:48:38.505Z,10.96
2023-03-23T05:49:40.221Z,10.97
2023-03-23T05:50:41.975Z,10.97
2023-03-23T05:51:43.712Z,10.95
2023-03-23T05:52:45.422Z,10.96
2023-03-23T05:53:47.155Z,10.96
2023-03-23T05:54:48.891Z,10.94
2023-03-23T05:55:50.631Z,10.94
2023-03-23T05:56:52.361Z,10.95
2023-03-23T05:57:54.099Z,10.96
2023-03-23T05:58:55.827Z,10.96
2023-03-23T05:59:57.576Z,10.96
2023-03-23T06:00:59.318Z,10.97
2023-03-23T06:02:01.053Z,10.97
2023-03-23T06:03:02.780Z,10.99
2023-03-23T06:04:04.513Z,10.99
2023-03-23T06:05:06.238Z,11
2023-03-23T06:06:07.992Z,11.01
2023-03-23T06:07:09.880Z,11
2023-03-23T06:08:11.443Z,11
2023-03-23T06:09:13.175Z,11.01
2023-03-23T06:10:14.918Z,11.02
2023-03-23T06:11:16.658Z,11.01
2023-03-23T06:12:18.387Z,11.01
2023-03-23T06:13:20.147Z,11.01
2023-03-23T06:14:21.854Z,11
2023-03-23T06:15:23.588Z,11
2023-03-23T06:16:25.309Z,10.99
2023-03-23T06:17:27.065Z,11
2023-03-23T06:18:28.799Z,11
2023-03-23T06:19:30.543Z,11
2023-03-23T06:20:32.271Z,11
2023-03-23T06:21:33.999Z,11.01
2023-03-23T06:22:35.725Z,11
2023-03-23T06:23:37.499Z,11
2023-03-23T06:24:39.194Z,10.99
2023-03-23T06:25:41.093Z,10.98
2023-03-23T06:26:42.671Z,10.99
2023-03-23T06:27:44.398Z,10.99
2023-03-23T06:28:46.140Z,11
2023-03-23T06:29:47.863Z,11.01
2023-03-23T06:30:49.603Z,11.02
2023-03-23T06:31:51.340Z,11.02
2023-03-23T06:32:53.082Z,11.03
2023-03-23T06:33:54.803Z,11.03
2023-03-23T06:34:56.532Z,11.04
2023-03-23T06:35:58.319Z,11.04
2023-03-23T06:37:00.028Z,11.05
2023-03-23T06:38:01.739Z,11.06
2023-03-23T06:39:03.468Z,11.07
2023-03-23T06:40:05.226Z,11.06
2023-03-23T06:41:06.941Z,11.08
2023-03-23T06:42:08.684Z,11.09
2023-03-23T06:43:10.440Z,11.1
2023-03-23T06:44:12.145Z,11.12
2023-03-23T06:45:13.869Z,11.14
2023-03-23T06:46:15.620Z,11.16
2023-03-23T06:47:17.472Z,11.17
2023-03-23T06:48:19.083Z,11.18
2023-03-23T06:49:21.188Z,11.19
2023-03-23T06:50:22.574Z,11.19
2023-03-23T06:51:24.300Z,11.21
2023-03-23T06:52:26.007Z,11.22
2023-03-23T06:53:27.808Z,11.24
2023-03-23T06:54:29.554Z,11.26
2023-03-23T06:55:31.349Z,11.28
2023-03-23T06:56:32.983Z,11.3
2023-03-23T06:57:34.697Z,11.32
2023-03-23T06:58:36.428Z,11.36
2023-03-23T06:59:38.151Z,11.38
2023-03-23T07:00:39.908Z,11.42
2023-03-23T07:01:41.652Z,11.43
2023-03-23T07:02:43.366Z,11.45
2023-03-23T07:03:45.104Z,11.46
2023-03-23T07:04:46.942Z,11.48
2023-03-23T07:05:48.575Z,11.47
2023-03-23T07:06:50.310Z,11.48
2023-03-23T07:07:52.039Z,11.47
2023-03-23T07:08:53.783Z,11.47
2023-03-23T07:09:55.499Z,11.47
2023-03-23T07:10:57.233Z,11.46
2023-03-23T07:11:58.972Z,11.46
2023-03-23T07:13:00.686Z,11.45
2023-03-23T07:14:02.442Z,11.44
2023-03-23T07:15:04.180Z,11.43
2023-03-23T07:16:05.889Z,11.43
2023-03-23T07:17:07.654Z,11.42
2023-03-23T07:18:09.353Z,11.42
2023-03-23T07:19:11.117Z,11.41
2023-03-23T07:20:12.819Z,11.4
2023-03-23T07:21:14.561Z,11.38
2023-03-23T07:22:16.457Z,11.35
2023-03-23T07:23:18.029Z,11.34
2023-03-23T07:24:19.736Z,11.33
2023-03-23T07:25:21.466Z,11.31
2023-03-23T07:26:23.182Z,11.28
2023-03-23T07:27:24.908Z,11.27
2023-03-23T07:28:26.633Z,11.27
2023-03-23T07:29:28.476Z,11.26
2023-03-23T07:30:30.077Z,11.26
2023-03-23T07:31:31.802Z,11.26
2023-03-23T07:32:33.548Z,11.25
2023-03-23T07:33:35.278Z,11.23
2023-03-23T07:34:36.982Z,11.23
2023-03-23T07:35:38.730Z,11.22
2023-03-23T07:36:40.432Z,11.24
2023-03-23T07:37:42.152Z,11.23
2023-03-23T07:38:43.883Z,11.24
2023-03-23T07:39:45.603Z,11.24
2023-03-23T07:40:47.329Z,11.24
2023-03-23T07:41:49.049Z,11.24
2023-03-23T07:42:50.783Z,11.26
2023-03-23T07:43:52.516Z,11.26
2023-03-23T07:44:54.234Z,11.26
2023-03-23T07:45:55.969Z,11.28
2023-03-23T07:46:57.705Z,11.29
2023-03-23T07:48:00.785Z,11.3
2023-03-23T07:49:01.163Z,11.3
2023-03-23T07:50:02.898Z,11.31
2023-03-23T07:51:04.620Z,11.32
2023-03-23T07:52:06.343Z,11.32
2023-03-23T07:53:08.094Z,11.33
2023-03-23T07:54:09.819Z,11.34
2023-03-23T07:55:11.533Z,11.36
2023-03-23T07:56:13.282Z,11.36
2023-03-23T07:57:15.021Z,11.36
2023-03-23T07:58:16.901Z,11.37
2023-03-23T07:59:18.499Z,11.38
2023-03-23T08:00:20.213Z,11.39
2023-03-23T08:01:21.986Z,11.42
2023-03-23T08:02:23.727Z,11.43
2023-03-23T08:03:25.515Z,11.45
2023-03-23T08:04:27.187Z,11.46
2023-03-23T08:05:28.902Z,11.47
2023-03-23T08:06:30.617Z,11.49
2023-03-23T08:07:32.354Z,11.49
2023-03-23T08:08:34.144Z,11.51
2023-03-23T08:09:35.817Z,11.53
2023-03-23T08:10:37.580Z,11.54
2023-03-23T08:11:39.305Z,11.55
2023-03-23T08:12:41.040Z,11.56
2023-03-23T08:13:42.908Z,11.57
2023-03-23T08:14:44.510Z,11.57
2023-03-23T08:15:46.252Z,11.57
2023-03-23T08:16:47.963Z,11.58
2023-03-23T08:17:49.692Z,11.58
2023-03-23T08:18:51.446Z,11.59
2023-03-23T08:19:53.173Z,11.59
2023-03-23T08:20:55.516Z,11.59
2023-03-23T08:21:56.655Z,11.6
2023-03-23T08:22:58.358Z,11.59
2023-03-23T08:24:00.152Z,11.59
2023-03-23T08:25:01.852Z,11.59
2023-03-23T08:26:03.594Z,11.59
2023-03-23T08:27:05.317Z,11.58
2023-03-23T08:28:07.055Z,11.59
2023-03-23T08:29:08.776Z,11.59
2023-03-23T08:30:10.533Z,11.59
2023-03-23T08:31:12.244Z,11.6
2023-03-23T08:32:13.999Z,11.61
2023-03-23T08:33:15.725Z,11.63
2023-03-23T08:34:17.508Z,11.66
2023-03-23T08:35:19.201Z,11.68
2023-03-23T08:36:20.922Z,11.71
2023-03-23T08:37:22.652Z,11.75
2023-03-23T08:38:24.374Z,11.81
2023-03-23T08:39:26.140Z,11.84
2023-03-23T08:40:27.855Z,11.88
2023-03-23T08:41:29.663Z,11.93
2023-03-23T08:42:31.323Z,11.98
2023-03-23T08:43:33.056Z,12.02
2023-03-23T08:44:34.799Z,12.07
2023-03-23T08:45:36.541Z,12.12
2023-03-23T08:46:38.257Z,12.17
2023-03-23T08:47:40.005Z,12.21
2023-03-23T08:48:41.752Z,12.25
2023-03-23T08:49:43.460Z,12.29
2023-03-23T08:50:45.278Z,12.32
2023-03-23T08:51:46.940Z,12.36
2023-03-23T08:52:48.675Z,12.4
2023-03-23T08:53:50.412Z,12.45
2023-03-23T08:54:52.146Z,12.47
2023-03-23T08:55:53.866Z,12.51
2023-03-23T08:56:55.625Z,12.55
2023-03-23T08:57:57.331Z,12.58
2023-03-23T08:58:59.077Z,12.62
2023-03-23T09:00:00.823Z,12.67
2023-03-23T09:01:02.554Z,12.74
2023-03-23T09:02:04.298Z,12.81
2023-03-23T09:03:06.096Z,12.86
2023-03-23T09:04:07.780Z,12.89
2023-03-23T09:05:09.496Z,12.95
2023-03-23T09:06:11.230Z,13
2023-03-23T09:07:12.946Z,13.05
2023-03-23T09:08:14.685Z,13.09
2023-03-23T09:09:16.428Z,13.14
2023-03-23T09:10:18.149Z,13.19
2023-03-23T09:11:19.882Z,13.23
2023-03-23T09:12:21.626Z,13.28
2023-03-23T09:13:23.363Z,13.32
2023-03-23T09:14:25.088Z,13.36
2023-03-23T09:15:33.176Z,13.41
2023-03-23T09:16:28.571Z,13.48
2023-03-23T09:17:30.304Z,13.48
2023-03-23T09:18:32.037Z,13.47
2023-03-23T09:19:33.788Z,13.45
2023-03-23T09:20:35.490Z,13.41
2023-03-23T09:21:37.224Z,13.41
2023-03-23T09:22:38.976Z,13.39
2023-03-23T09:23:40.704Z,13.44
2023-03-23T09:24:42.452Z,13.49
2023-03-23T09:25:44.173Z,13.53
2023-03-23T09:26:45.931Z,13.63
2023-03-23T09:27:47.623Z,13.72
2023-03-23T09:28:49.365Z,13.79
2023-03-23T09:29:51.126Z,13.8
2023-03-23T09:30:53.529Z,13.83
2023-03-23T09:31:54.564Z,13.88
2023-03-23T09:32:56.321Z,13.92
2023-03-23T09:33:58.038Z,13.95
2023-03-23T09:34:59.801Z,13.97
2023-03-23T09:36:01.575Z,14
2023-03-23T09:37:03.224Z,13.96
2023-03-23T09:38:05.054Z,13.92
2023-03-23T09:39:06.740Z,13.87
2023-03-23T09:40:08.467Z,13.8
2023-03-23T09:41:10.189Z,13.7
2023-03-23T09:42:11.913Z,13.62
2023-03-23T09:43:13.655Z,13.58
2023-03-23T09:44:15.374Z,13.5
2023-03-23T09:45:17.123Z,13.44
2023-03-23T09:46:18.884Z,13.31
2023-03-23T09:47:20.587Z,13.25
2023-03-23T09:48:22.336Z,13.18
2023-03-23T09:49:24.088Z,13.09
2023-03-23T09:50:25.814Z,13.01
2023-03-23T09:51:27.551Z,12.92
2023-03-23T09:52:29.276Z,12.84
2023-03-23T09:53:31.001Z,12.78
2023-03-23T09:54:32.733Z,12.65
2023-03-23T09:55:34.473Z,12.6
2023-03-23T09:56:36.221Z,12.56
2023-03-23T09:57:37.805Z,12.52
2023-03-23T09:58:39.504Z,12.5
2023-03-23T09:59:41.250Z,12.48
2023-03-23T10:00:43.051Z,12.48
2023-03-23T10:01:44.779Z,12.46
2023-03-23T10:02:46.469Z,12.45
2023-03-23T10:03:48.205Z,12.46
2023-03-23T10:04:49.938Z,12.43
2023-03-23T10:05:51.664Z,12.4
2023-03-23T10:06:53.409Z,12.38
2023-03-23T10:07:55.175Z,12.38
2023-03-23T10:08:57.581Z,12.37
2023-03-23T10:09:58.593Z,12.37
2023-03-23T10:11:00.326Z,12.39
2023-03-23T10:12:02.079Z,12.41
2023-03-23T10:13:03.826Z,12.43
2023-03-23T10:14:05.545Z,12.41
2023-03-23T10:15:07.281Z,12.4
2023-03-23T10:16:09.024Z,12.39
2023-03-23T10:17:11.198Z,12.4
2023-03-23T10:18:12.449Z,12.39
2023-03-23T10:19:14.201Z,12.39
2023-03-23T10:20:15.944Z,12.4
2023-03-23T10:21:17.671Z,12.41
2023-03-23T10:22:19.402Z,12.4
2023-03-23T10:23:21.152Z,12.39
2023-03-23T10:24:22.882Z,12.36
2023-03-23T10:25:24.601Z,12.33
2023-03-23T10:26:26.335Z,12.28
2023-03-23T10:27:28.092Z,12.25
2023-03-23T10:28:29.809Z,12.23
2023-03-23T10:29:31.543Z,12.19
2023-03-23T10:30:33.347Z,12.18
2023-03-23T10:31:35.011Z,12.17
2023-03-23T10:32:36.743Z,12.16
2023-03-23T10:33:38.485Z,12.15
2023-03-23T10:34:40.224Z,12.17
2023-03-23T10:35:42.135Z,12.19
2023-03-23T10:36:43.681Z,12.22
2023-03-23T10:37:45.411Z,12.27
2023-03-23T10:38:47.142Z,12.33
2023-03-23T10:39:48.884Z,12.39
2023-03-23T10:40:50.629Z,12.49
2023-03-23T10:41:52.361Z,12.58
2023-03-23T10:42:54.089Z,12.68
2023-03-23T10:43:55.815Z,12.8
2023-03-23T10:44:57.548Z,12.87
2023-03-23T10:46:00.985Z,12.93
2023-03-23T10:47:01.028Z,13
2023-03-23T10:48:02.772Z,13.09
2023-03-23T10:49:04.506Z,13.15
2023-03-23T10:50:06.222Z,13.22
2023-03-23T10:51:07.995Z,13.3
2023-03-23T10:52:09.689Z,13.37
2023-03-23T10:53:11.424Z,13.46
2023-03-23T10:54:13.178Z,13.54
2023-03-23T10:55:14.909Z,13.62
2023-03-23T10:56:16.632Z,13.66
2023-03-23T10:57:18.360Z,13.7
2023-03-23T10:58:20.122Z,13.78
2023-03-23T10:59:21.827Z,13.82
2023-03-23T11:00:23.687Z,13.85
2023-03-23T11:01:25.332Z,13.89
2023-03-23T11:02:29.644Z,13.91
2023-03-23T11:03:28.767Z,13.91
2023-03-23T11:04:30.484Z,13.89
2023-03-23T11:05:32.279Z,13.91
2023-03-23T11:06:33.971Z,13.94
2023-03-23T11:07:35.704Z,13.93
2023-03-23T11:08:37.456Z,13.91
2023-03-23T11:09:39.178Z,13.86
2023-03-23T11:10:40.919Z,13.83
2023-03-23T11:11:42.639Z,13.83
2023-03-23T11:12:44.381Z,13.81
2023-03-23T11:13:47.478Z,13.75
2023-03-23T11:14:47.858Z,13.7
2023-03-23T11:15:49.581Z,13.66
2023-03-23T11:16:51.310Z,13.63
2023-03-23T11:17:53.052Z,13.6
2023-03-23T11:18:54.768Z,13.63
2023-03-23T11:19:56.523Z,13.59
2023-03-23T11:20:58.262Z,13.55
2023-03-23T11:21:59.966Z,13.49
2023-03-23T11:23:01.723Z,13.44
2023-03-23T11:24:09.641Z,13.37
2023-03-23T11:25:05.201Z,13.34
2023-03-23T11:26:06.924Z,13.33
2023-03-23T11:27:08.644Z,13.3
2023-03-23T11:28:10.394Z,13.31
2023-03-23T11:29:12.157Z,13.32
2023-03-23T11:30:13.863Z,13.34
2023-03-23T11:31:15.595Z,13.4
2023-03-23T11:32:17.327Z,13.43
2023-03-23T11:33:19.062Z,13.47
2023-03-23T11:34:20.803Z,13.56
2023-03-23T11:35:22.538Z,13.64
2023-03-23T11:36:24.384Z,13.69
2023-03-23T11:37:25.999Z,13.75
2023-03-23T11:38:27.746Z,13.84
2023-03-23T11:39:29.464Z,13.95
2023-03-23T11:40:31.222Z,14.08
2023-03-23T11:41:32.944Z,14.17
2023-03-23T11:42:34.661Z,14.25
2023-03-23T11:43:36.399Z,14.32
2023-03-23T11:44:38.125Z,14.41
2023-03-23T11:45:39.946Z,14.45
2023-03-23T11:46:41.609Z,14.47
2023-03-23T11:47:43.330Z,14.45
2023-03-23T11:48:45.079Z,14.38
2023-03-23T11:49:46.804Z,14.39
2023-03-23T11:50:48.552Z,14.31
2023-03-23T11:51:50.272Z,14.29
2023-03-23T11:52:52.007Z,14.3
2023-03-23T11:53:53.749Z,14.3
2023-03-23T11:54:55.492Z,14.29
2023-03-23T11:55:57.261Z,14.25
2023-03-23T11:56:58.951Z,14.23
2023-03-23T11:58:00.679Z,14.22
2023-03-23T11:59:02.415Z,14.21
2023-03-23T12:00:04.155Z,14.19
2023-03-23T12:01:05.956Z,14.16
2023-03-23T12:02:16.992Z,14.13
2023-03-23T12:03:09.364Z,14.11
2023-03-23T12:04:11.098Z,14.08
2023-03-23T12:05:12.829Z,14.06
2023-03-23T12:06:14.580Z,14.01
2023-03-23T12:07:16.471Z,13.96
2023-03-23T12:09:19.762Z,13.93
2023-03-23T12:10:30.426Z,13.91
2023-03-23T12:11:23.223Z,13.87
2023-03-23T12:12:24.962Z,13.81
2023-03-23T12:13:26.698Z,13.83
2023-03-23T12:14:33.247Z,13.83
2023-03-23T12:15:30.169Z,13.79
2023-03-23T12:16:31.920Z,13.74
2023-03-23T12:17:33.681Z,13.67
2023-03-23T12:18:35.360Z,13.67
2023-03-23T12:19:37.107Z,13.63
2023-03-23T12:20:42.841Z,13.59
2023-03-23T12:21:40.571Z,13.6
2023-03-23T12:22:42.292Z,13.58
2023-03-23T12:23:44.052Z,13.57
2023-03-23T12:24:45.790Z,13.55
2023-03-23T12:25:47.533Z,13.52
2023-03-23T12:26:49.251Z,13.49
2023-03-23T12:27:50.977Z,13.47
2023-03-23T12:28:52.712Z,13.42
2023-03-23T12:29:54.456Z,13.43
2023-03-23T12:30:56.222Z,13.43
2023-03-23T12:31:57.909Z,13.44
2023-03-23T12:32:59.636Z,13.47
2023-03-23T12:34:01.398Z,13.53
2023-03-23T12:35:03.183Z,13.66
2023-03-23T12:36:04.855Z,13.78
2023-03-23T12:37:06.590Z,13.86
2023-03-23T12:38:08.325Z,13.92
2023-03-23T12:39:10.056Z,13.94
2023-03-23T12:40:11.801Z,13.94
2023-03-23T12:41:13.540Z,13.98
2023-03-23T12:42:15.262Z,14
2023-03-23T12:43:16.993Z,14
2023-03-23T12:44:18.739Z,14.05
2023-03-23T12:45:20.466Z,14.07
2023-03-23T12:46:22.208Z,14.06
2023-03-23T12:47:23.930Z,14.06
2023-03-23T12:48:25.671Z,14.02
2023-03-23T12:49:27.408Z,14.01
2023-03-23T12:50:29.153Z,13.99
2023-03-23T12:51:30.843Z,13.97
2023-03-23T12:52:32.594Z,13.96
2023-03-23T12:53:34.302Z,13.96
2023-03-23T12:54:36.040Z,13.98
2023-03-23T12:55:37.747Z,13.99
2023-03-23T12:56:39.489Z,14.03
2023-03-23T12:57:41.194Z,14.07
2023-03-23T12:58:42.923Z,14.1
2023-03-23T12:59:44.653Z,14.11
2023-03-23T13:00:46.415Z,14.14
2023-03-23T13:01:48.129Z,14.2
2023-03-23T13:02:49.830Z,14.24
2023-03-23T13:03:51.562Z,14.3
2023-03-23T13:04:53.282Z,14.28
2023-03-23T13:05:55.003Z,14.31
2023-03-23T13:06:56.754Z,14.34
2023-03-23T13:07:58.458Z,14.32
2023-03-23T13:09:00.183Z,14.3
2023-03-23T13:10:01.906Z,14.28
2023-03-23T13:11:03.640Z,14.25
2023-03-23T13:12:05.342Z,14.22
2023-03-23T13:13:07.096Z,14.18
2023-03-23T13:14:08.805Z,14.15
2023-03-23T13:15:10.544Z,14.11
2023-03-23T13:16:12.291Z,14.09
2023-03-23T13:17:14.004Z,14.07
2023-03-23T13:18:15.755Z,14.01
2023-03-23T13:19:17.489Z,13.96
2023-03-23T13:20:19.199Z,13.9
2023-03-23T13:21:20.950Z,13.85